Thunder radar more information blitzortung!


Rain radar more information rain snow radar


Visit our other weather sites:

Template documentation
and downloads

And another site



There are no active watches, warnings or advisories

Nearby METAR Reports

   
EHVK - Volkel Rnlafb, Netherlands
Distance from station: SW 11 mi
Updated: May 31 2020 3:25 pm
Overcast  
Overcast  
   Wind: East 6.9 mph
Wind: East 6.9 mph
Temperature: 64.4°F
Dew Point: 42.8°F
Humidity: 46%
Barometer: 30.15 inHg
Clouds: Overcast
Visibility: More than 6 mi
Cloud details: Overcast 35000 ft
EHVK 311925Z AUTO 08006KT 9999 OVC350 18/06 Q1021 BLU
EDLV - Niederrhein, Germany
Distance from station: SE 15 mi
Updated: May 29 2020 7:50 am
NOT Current
Clear  
Clear  
   Wind: varies 4.6 mph
Wind: varies 4.6 mph
Temperature: 69.8°F
Dew Point: 39.2°F
Humidity: 33%
Barometer: 30.33 inHg
Visibility: More than 6 mi
Cloud details: Clear
EDLV 291150Z VRB04KT CAVOK 21/04 Q1027
EHDL - Deelen Rnlafb, Netherlands
Distance from station: N 22 mi
Updated: May 31 2020 3:25 pm
Overcast  
Overcast  
   Wind: East 3.5 mph
Wind: East 3.5 mph
Temperature: 66.2°F
Dew Point: 42.8°F
Humidity: 43%
Barometer: 30.18 inHg
Clouds: Overcast
Visibility: More than 6 mi
Cloud details: Overcast 34000 ft
EHDL 311925Z AUTO 09003KT 040V150 9999 OVC340 19/06 Q1022 BLU
EHEH - Eindhoven Rnlafb, Netherlands
Distance from station: SW 30 mi
Updated: May 31 2020 3:25 pm
Overcast  
Overcast  
   Wind: ENE 9.2 mph
Wind: ENE 9.2 mph
Temperature: 66.2°F
Dew Point: 41°F
Humidity: 40%
Barometer: 30.15 inHg
Clouds: Overcast
Visibility: More than 6 mi
Cloud details: Overcast 34000 ft
EHEH 311925Z AUTO 07008KT 040V110 9999 OVC340 19/05 Q1021 BLU
EHGR - Gilze-Rijen Rnla, Netherlands
Distance from station: WSW 43 mi
Updated: May 31 2020 3:25 pm
Overcast  
Overcast  
   Wind: East 6.9 mph
Wind: East 6.9 mph
Temperature: 66.2°F
Dew Point: 41°F
Humidity: 40%
Barometer: 30.15 inHg
Clouds: Overcast
Visibility: More than 6 mi
Cloud details: Overcast 34000 ft
EHGR 311925Z AUTO 10006KT 040V140 9999 OVC340 19/05 Q1021 BLU
EBBL - Kleine-Brogel(Ba, Belgium
Distance from station: SSW 44 mi
Updated: May 31 2020 3:25 pm
Clear  
Clear  
   Wind: ENE 8.1 mph
Wind: ENE 8.1 mph
Temperature: 64.4°F
Dew Point: 41°F
Humidity: 43%
Barometer: 30.15 inHg
Clouds: Clear
Visibility: More than 6 mi
Cloud details: Clear
EBBL 311925Z AUTO 06007KT 9999 NCD 18/05 Q1021 BLU

Script developed by  Saratoga-weather.org Adapted for the template by  Weerstation Leuven

You find our weather info also at:

Weather Underground

AWEKAS

Citizen Weather Observer Program (CWOP)

HAMweather, WeatherForYou, PWS Weather

Equipment we use:

Weather-station
Davis VP2

Weather-program
Weather Display

Weather-server
HP ProDesk 600 G1

Provider
1&1 IONOS

Davis VP2

Weather Display

HP ProDesk 600 G1

1&1 IONOS